Time;durP1;ratioP1;P1;durP2;ratioP2;P2;SDS_P1;SDS_P2;PMS_P1;PMS_P2;Temp;Humidity;BMP_temperature;BMP_pressure;BME280_temperature;BME280_humidity;BME280_pressure;Samples;Min_cycle;Max_cycle;Signal;HPM_P1;HPM_P2
2021/08/13 00:01:49;;;;;;;2.40;1.80;;;27.40;55.30;;;;;;5056886;28;20462;-61
2021/08/13 00:04:15;;;;;;;2.78;2.00;;;27.40;55.30;;;;;;5066299;28;20028;-65
2021/08/13 00:06:41;;;;;;;2.58;1.92;;;27.40;55.30;;;;;;5050024;28;20060;-64
2021/08/13 00:09:09;;;;;;;3.25;1.88;;;27.40;55.30;;;;;;5039485;28;20029;-64
2021/08/13 00:11:39;;;;;;;2.60;1.80;;;27.30;55.30;;;;;;5036566;28;20074;-62
2021/08/13 00:14:07;;;;;;;1.88;1.42;;;27.30;55.30;;;;;;5038104;28;20049;-65
2021/08/13 00:16:33;;;;;;;2.72;1.80;;;27.30;55.30;;;;;;5040873;28;20029;-64
2021/08/13 00:18:59;;;;;;;2.45;1.90;;;27.30;55.30;;;;;;5038896;28;20033;-64
2021/08/13 00:21:24;;;;;;;2.25;1.75;;;27.30;55.30;;;;;;5045255;28;20036;-64
2021/08/13 00:23:51;;;;;;;2.67;2.00;;;27.30;55.30;;;;;;5045859;28;20033;-64
2021/08/13 00:26:16;;;;;;;2.85;1.75;;;27.30;55.30;;;;;;5045944;28;20024;-63
2021/08/13 00:28:42;;;;;;;2.35;1.80;;;27.30;55.30;;;;;;5045898;28;20052;-61
2021/08/13 00:31:08;;;;;;;2.30;1.80;;;27.30;55.30;;;;;;5048451;28;20039;-62
2021/08/13 00:33:33;;;;;;;2.45;1.70;;;27.30;55.30;;;;;;5035544;28;20033;-62
2021/08/13 00:35:59;;;;;;;2.65;1.90;;;27.30;55.30;;;;;;5030594;28;20037;-64
2021/08/13 00:38:25;;;;;;;2.83;1.98;;;27.30;55.30;;;;;;5049142;28;20029;-66
2021/08/13 00:40:50;;;;;;;2.55;1.75;;;27.30;55.30;;;;;;5048630;28;20048;-60
2021/08/13 00:43:16;;;;;;;3.05;2.00;;;27.30;55.30;;;;;;5044094;28;20108;-61
2021/08/13 00:45:42;;;;;;;2.45;1.73;;;27.20;55.30;;;;;;5048819;28;20492;-64
2021/08/13 00:48:07;;;;;;;2.30;1.60;;;27.20;55.30;;;;;;5047509;28;20091;-65
2021/08/13 00:50:33;;;;;;;2.28;1.75;;;27.20;55.30;;;;;;5047017;28;20028;-64
2021/08/13 00:53:00;;;;;;;2.47;1.83;;;27.20;55.30;;;;;;5047163;28;20029;-66
2021/08/13 00:55:26;;;;;;;2.92;1.98;;;27.20;55.30;;;;;;5057306;28;20060;-64
2021/08/13 00:57:51;;;;;;;2.80;1.83;;;27.20;55.30;;;;;;5054079;28;20048;-60
2021/08/13 01:00:17;;;;;;;2.47;1.70;;;27.20;55.30;;;;;;5048442;28;20021;-61
2021/08/13 01:02:43;;;;;;;2.83;1.95;;;27.20;55.30;;;;;;5040381;28;20056;-60
2021/08/13 01:05:09;;;;;;;2.72;1.98;;;27.20;55.30;;;;;;5049334;28;20064;-65
2021/08/13 01:07:35;;;;;;;2.70;1.92;;;27.20;55.30;;;;;;5051923;28;20486;-64
2021/08/13 01:10:02;;;;;;;2.83;1.90;;;27.20;55.30;;;;;;5048986;28;20029;-64
2021/08/13 01:12:46;;;;;;;2.78;2.00;;;27.20;55.30;;;;;;5047043;28;20201;-61
2021/08/13 01:15:13;;;;;;;2.60;1.88;;;27.20;55.30;;;;;;5048764;28;20489;-62
2021/08/13 01:18:08;;;;;;;2.45;1.85;;;27.20;55.30;;;;;;5046830;28;20032;-64
2021/08/13 01:20:58;;;;;;;2.97;1.90;;;27.20;55.30;;;;;;5043976;28;20051;-60
2021/08/13 01:23:40;;;;;;;3.17;1.65;;;27.10;55.20;;;;;;5051832;28;20116;-64
2021/08/13 01:26:07;;;;;;;2.85;1.80;;;27.10;55.30;;;;;;5053930;28;20025;-64
2021/08/13 01:28:54;;;;;;;3.45;1.70;;;27.10;55.20;;;;;;5060444;28;20040;-62
2021/08/13 01:31:23;;;;;;;2.67;1.77;;;27.10;55.20;;;;;;5047183;28;20364;-61
2021/08/13 01:33:54;;;;;;;2.47;1.90;;;27.10;55.20;;;;;;5044474;28;20025;-61
2021/08/13 01:36:22;;;;;;;2.47;1.80;;;27.10;55.20;;;;;;5047945;28;20473;-64
2021/08/13 01:38:50;;;;;;;2.70;1.90;;;27.10;55.20;;;;;;5050622;28;20159;-62
2021/08/13 01:41:18;;;;;;;2.85;2.00;;;27.10;55.20;;;;;;5050237;28;20037;-61
2021/08/13 01:43:44;;;;;;;2.40;1.77;;;27.10;55.20;;;;;;5063419;28;20024;-64
2021/08/13 01:46:12;;;;;;;2.40;1.80;;;27.10;55.20;;;;;;5051837;28;20028;-61
2021/08/13 01:48:38;;;;;;;2.55;1.88;;;27.10;55.20;;;;;;5056033;28;20032;-65
2021/08/13 01:51:05;;;;;;;2.25;1.70;;;27.10;55.20;;;;;;5049861;28;20112;-61
2021/08/13 01:53:31;;;;;;;2.88;2.00;;;27.10;55.30;;;;;;5047513;28;20102;-62
2021/08/13 01:55:58;;;;;;;2.50;1.92;;;27.10;55.30;;;;;;5047097;28;20116;-61
2021/08/13 01:58:24;;;;;;;2.55;1.90;;;27.10;55.20;;;;;;5040991;28;20021;-60
2021/08/13 02:00:52;;;;;;;2.72;2.00;;;27.10;55.20;;;;;;5045983;28;20132;-65
2021/08/13 02:03:17;;;;;;;2.80;2.10;;;27.00;55.20;;;;;;5046578;28;20033;-64
2021/08/13 02:05:47;;;;;;;2.63;2.03;;;27.10;55.30;;;;;;5047737;28;20511;-61
2021/08/13 02:08:14;;;;;;;2.70;2.08;;;27.00;55.20;;;;;;5046475;28;20035;-64
2021/08/13 02:10:44;;;;;;;2.80;1.80;;;27.00;55.20;;;;;;5043820;28;20025;-64
2021/08/13 02:13:11;;;;;;;2.58;1.92;;;27.00;55.20;;;;;;5049710;28;20119;-66
2021/08/13 02:15:38;;;;;;;2.58;1.92;;;27.00;55.20;;;;;;5036284;28;20405;-64
2021/08/13 02:18:11;;;;;;;3.33;2.08;;;27.10;55.30;;;;;;5050251;28;20039;-64
2021/08/13 02:20:39;;;;;;;2.60;2.00;;;27.00;55.20;;;;;;5058122;28;20052;-62
2021/08/13 02:23:06;;;;;;;2.65;2.05;;;27.00;55.20;;;;;;5046119;28;20033;-64
2021/08/13 02:25:32;;;;;;;2.35;1.80;;;27.00;55.20;;;;;;5035921;28;20632;-65
2021/08/13 02:27:58;;;;;;;2.58;1.98;;;27.00;55.20;;;;;;5050347;28;20031;-64
2021/08/13 02:30:23;;;;;;;2.63;2.00;;;27.00;55.20;;;;;;5043476;28;20033;-64
2021/08/13 02:32:49;;;;;;;2.30;1.70;;;27.00;55.20;;;;;;5027959;28;20033;-61
2021/08/13 02:35:15;;;;;;;3.15;1.95;;;27.00;55.20;;;;;;5027417;28;20087;-63
2021/08/13 02:37:54;;;;;;;2.75;1.95;;;27.00;55.20;;;;;;5048105;28;20451;-64
2021/08/13 02:40:30;;;;;;;2.95;2.10;;;27.00;55.20;;;;;;5049118;28;20056;-65
2021/08/13 02:43:09;;;;;;;2.33;1.80;;;27.00;55.20;;;;;;5057518;28;20036;-62
2021/08/13 02:45:40;;;;;;;2.90;2.05;;;27.00;55.30;;;;;;5046821;28;20040;-62
2021/08/13 02:48:07;;;;;;;2.80;2.08;;;27.00;55.20;;;;;;5042991;28;20171;-63
2021/08/13 02:50:36;;;;;;;2.80;1.90;;;26.90;55.10;;;;;;5049866;28;20039;-60
2021/08/13 02:53:07;;;;;;;2.80;2.10;;;26.90;55.10;;;;;;5052617;28;20025;-65
2021/08/13 02:55:53;;;;;;;2.45;2.00;;;26.90;55.10;;;;;;5054032;28;20044;-65
2021/08/13 02:58:22;;;;;;;2.97;2.30;;;26.90;55.10;;;;;;5044295;28;20037;-64
2021/08/13 03:00:50;;;;;;;3.25;2.25;;;26.90;55.20;;;;;;5057588;28;20035;-61
2021/08/13 03:03:17;;;;;;;2.72;2.10;;;26.90;55.20;;;;;;5046938;28;20060;-63
2021/08/13 03:05:52;;;;;;;2.90;2.00;;;26.90;55.20;;;;;;5046455;28;20124;-62
2021/08/13 03:08:19;;;;;;;2.55;1.95;;;26.90;55.20;;;;;;5049959;28;20118;-65
2021/08/13 03:10:47;;;;;;;2.65;2.05;;;26.90;55.20;;;;;;5046451;28;20671;-65
2021/08/13 03:13:15;;;;;;;2.70;1.90;;;26.90;55.20;;;;;;5054279;28;20460;-64
2021/08/13 03:15:42;;;;;;;2.55;1.95;;;26.90;55.20;;;;;;5042823;28;20028;-60
2021/08/13 03:18:08;;;;;;;2.65;2.10;;;26.90;55.20;;;;;;5051214;28;20028;-64
2021/08/13 03:20:34;;;;;;;2.83;2.22;;;26.90;55.20;;;;;;5048886;28;20112;-62
2021/08/13 03:23:00;;;;;;;2.50;1.75;;;26.90;55.30;;;;;;5041595;28;20100;-65
2021/08/13 03:25:26;;;;;;;3.20;2.15;;;26.90;55.20;;;;;;5042219;28;20045;-63
2021/08/13 03:27:52;;;;;;;2.55;1.98;;;26.90;55.20;;;;;;5049037;28;20025;-64
2021/08/13 03:30:18;;;;;;;2.80;2.08;;;26.90;55.20;;;;;;5057419;28;20102;-64
2021/08/13 03:32:46;;;;;;;2.30;1.88;;;26.80;55.10;;;;;;5047688;28;20028;-65
2021/08/13 03:35:14;;;;;;;3.00;2.05;;;26.80;55.20;;;;;;5059960;28;20036;-63
2021/08/13 03:37:41;;;;;;;2.88;2.05;;;26.80;55.10;;;;;;5036620;28;20103;-65
2021/08/13 03:40:08;;;;;;;3.17;2.17;;;26.90;55.20;;;;;;5036030;28;20051;-62
2021/08/13 03:42:34;;;;;;;2.40;1.90;;;26.80;55.10;;;;;;5049772;28;20032;-62
2021/08/13 03:45:00;;;;;;;2.90;2.00;;;26.80;55.10;;;;;;5050290;28;20398;-65
2021/08/13 03:47:26;;;;;;;3.17;2.10;;;26.80;55.10;;;;;;5059060;28;20389;-65
2021/08/13 03:49:51;;;;;;;2.92;2.00;;;26.80;55.20;;;;;;5045355;28;20087;-62
2021/08/13 03:52:17;;;;;;;3.10;2.20;;;26.80;55.10;;;;;;5047090;28;20094;-62
2021/08/13 03:54:43;;;;;;;2.90;2.17;;;26.80;55.20;;;;;;5045846;28;20048;-63
2021/08/13 03:57:09;;;;;;;3.08;2.40;;;26.80;55.20;;;;;;5044971;28;20031;-63
2021/08/13 03:59:34;;;;;;;2.80;2.10;;;26.80;55.20;;;;;;5049103;28;20443;-63
2021/08/13 04:02:00;;;;;;;2.75;2.00;;;26.80;55.10;;;;;;5046070;28;20020;-63
2021/08/13 04:04:25;;;;;;;2.60;2.00;;;26.80;55.20;;;;;;5049399;28;20496;-65
2021/08/13 04:06:51;;;;;;;3.03;1.90;;;26.80;55.20;;;;;;5049110;28;20028;-62
2021/08/13 04:09:17;;;;;;;2.72;2.03;;;26.80;55.20;;;;;;5045380;28;20464;-62
2021/08/13 04:11:42;;;;;;;2.70;2.20;;;26.80;55.20;;;;;;5044895;28;20396;-64
2021/08/13 04:14:08;;;;;;;3.00;2.15;;;26.80;55.20;;;;;;5046765;28;20072;-61
2021/08/13 04:16:34;;;;;;;2.70;2.00;;;26.80;55.20;;;;;;5045309;28;20033;-64
2021/08/13 04:18:59;;;;;;;3.00;2.17;;;26.80;55.20;;;;;;5047492;28;20433;-61
2021/08/13 04:21:25;;;;;;;2.90;2.22;;;26.80;55.20;;;;;;5051789;28;20108;-65
2021/08/13 04:23:51;;;;;;;2.60;1.83;;;26.80;55.20;;;;;;5048743;28;20025;-63
2021/08/13 04:26:16;;;;;;;3.55;2.17;;;26.70;55.10;;;;;;5048816;28;20033;-64
2021/08/13 04:28:42;;;;;;;2.60;2.10;;;26.70;55.10;;;;;;5067604;28;20119;-64
2021/08/13 04:31:08;;;;;;;2.72;1.90;;;26.70;55.10;;;;;;5047442;28;20093;-64
2021/08/13 04:33:34;;;;;;;2.58;1.90;;;26.70;55.10;;;;;;5045589;28;20156;-61
2021/08/13 04:36:00;;;;;;;2.70;2.00;;;26.70;55.10;;;;;;5048996;28;20426;-64
2021/08/13 04:38:26;;;;;;;2.95;2.00;;;26.70;55.10;;;;;;5047865;28;20045;-65
2021/08/13 04:40:52;;;;;;;2.58;1.90;;;26.70;55.10;;;;;;5055584;28;20140;-60
2021/08/13 04:43:17;;;;;;;3.05;2.30;;;26.70;55.70;;;;;;5060385;28;20033;-65
2021/08/13 04:45:43;;;;;;;2.70;2.10;;;26.70;55.10;;;;;;5047389;28;20091;-62
2021/08/13 04:48:09;;;;;;;2.53;2.00;;;26.70;55.20;;;;;;5047265;28;20041;-64
2021/08/13 04:50:35;;;;;;;2.90;2.13;;;26.70;55.20;;;;;;5047920;28;20029;-65
2021/08/13 04:53:00;;;;;;;2.75;2.03;;;26.70;55.20;;;;;;5051642;28;20452;-64
2021/08/13 04:55:26;;;;;;;2.88;2.10;;;26.70;55.20;;;;;;5057538;28;20161;-63
2021/08/13 04:57:53;;;;;;;2.97;2.10;;;26.70;55.20;;;;;;5054444;28;20028;-63
2021/08/13 05:00:19;;;;;;;3.75;2.28;;;26.70;55.20;;;;;;5049559;28;20028;-61
2021/08/13 05:02:45;;;;;;;2.53;1.90;;;26.70;55.20;;;;;;5047164;28;20033;-60
2021/08/13 05:05:11;;;;;;;3.42;2.20;;;26.70;55.20;;;;;;5047751;28;20044;-62
2021/08/13 05:07:37;;;;;;;2.72;2.15;;;26.70;55.20;;;;;;5046111;28;20040;-61
2021/08/13 05:10:11;;;;;;;2.45;2.00;;;26.70;55.20;;;;;;5043467;28;20362;-61
2021/08/13 05:12:38;;;;;;;2.90;2.35;;;26.70;55.20;;;;;;5044317;28;20052;-64
2021/08/13 05:15:05;;;;;;;2.85;2.10;;;26.60;55.10;;;;;;5045791;28;20028;-62
2021/08/13 05:17:31;;;;;;;2.47;2.00;;;26.70;55.20;;;;;;5048051;28;20039;-63
2021/08/13 05:19:56;;;;;;;3.00;2.20;;;26.70;55.20;;;;;;5058960;28;20033;-63
2021/08/13 05:22:22;;;;;;;2.42;1.98;;;26.60;55.10;;;;;;5050941;28;20119;-64
2021/08/13 05:24:48;;;;;;;3.00;2.20;;;26.70;55.20;;;;;;5049184;28;20400;-63
2021/08/13 05:27:13;;;;;;;2.83;2.20;;;26.60;55.10;;;;;;5065840;28;20051;-63
2021/08/13 05:29:40;;;;;;;2.85;2.20;;;26.70;55.20;;;;;;5060554;28;20064;-60
2021/08/13 05:32:06;;;;;;;2.72;2.10;;;26.60;55.10;;;;;;5046800;28;20040;-61
2021/08/13 05:34:32;;;;;;;2.75;2.05;;;26.60;55.20;;;;;;5049628;28;20493;-64
2021/08/13 05:36:58;;;;;;;2.80;2.05;;;26.60;55.20;;;;;;5048998;28;20145;-64
2021/08/13 05:39:23;;;;;;;3.20;2.00;;;26.60;55.20;;;;;;5046824;28;20079;-64
2021/08/13 05:41:49;;;;;;;2.40;1.90;;;26.60;55.20;;;;;;5043000;28;20082;-64
2021/08/13 05:44:15;;;;;;;3.33;2.90;;;26.60;55.20;;;;;;5048918;28;20079;-64
2021/08/13 05:46:40;;;;;;;4.07;3.25;;;26.60;55.20;;;;;;5039097;28;20117;-64
2021/08/13 05:49:06;;;;;;;4.80;3.70;;;26.60;55.20;;;;;;5027569;28;20037;-64
2021/08/13 05:51:31;;;;;;;5.05;3.92;;;26.60;55.30;;;;;;5035122;28;20529;-64
2021/08/13 05:53:57;;;;;;;6.03;4.63;;;26.60;55.40;;;;;;5036555;28;20033;-65
2021/08/13 05:56:22;;;;;;;6.45;4.47;;;26.50;55.60;;;;;;5045734;28;20032;-65
2021/08/13 05:58:48;;;;;;;7.88;5.40;;;26.40;55.70;;;;;;5042198;28;20040;-60
2021/08/13 06:01:14;;;;;;;8.90;6.50;;;26.40;56.40;;;;;;5044730;28;20477;-62
2021/08/13 06:03:40;;;;;;;7.13;6.05;;;26.20;57.20;;;;;;5040282;28;20112;-63
2021/08/13 06:06:05;;;;;;;8.70;5.93;;;26.00;57.70;;;;;;5037224;28;20429;-62
2021/08/13 06:08:31;;;;;;;6.28;5.35;;;25.90;57.60;;;;;;5041637;28;20035;-63
2021/08/13 06:10:57;;;;;;;6.03;5.28;;;25.90;57.40;;;;;;5032596;28;20033;-64
2021/08/13 06:13:22;;;;;;;10.40;6.38;;;26.00;57.50;;;;;;5030833;28;20658;-64
2021/08/13 06:15:48;;;;;;;8.18;6.30;;;25.90;58.40;;;;;;5030865;28;20029;-61
2021/08/13 06:18:13;;;;;;;7.53;6.40;;;25.70;58.70;;;;;;5035520;28;20037;-61
2021/08/13 06:20:39;;;;;;;8.15;6.20;;;25.60;59.00;;;;;;5041257;28;20033;-61
2021/08/13 06:23:05;;;;;;;6.85;5.80;;;25.50;59.10;;;;;;5032208;28;20025;-61
2021/08/13 06:25:31;;;;;;;8.50;5.70;;;25.60;58.80;;;;;;5032304;28;20523;-62
2021/08/13 06:27:56;;;;;;;6.57;5.30;;;25.60;58.50;;;;;;5032229;28;20029;-63
2021/08/13 06:30:23;;;;;;;6.90;5.80;;;25.70;58.80;;;;;;5043742;28;20094;-62
2021/08/13 06:32:50;;;;;;;8.68;5.60;;;25.70;58.80;;;;;;5037569;28;20029;-64
2021/08/13 06:35:16;;;;;;;6.85;6.00;;;25.60;58.70;;;;;;5048663;28;20457;-61
2021/08/13 06:37:52;;;;;;;8.50;6.20;;;25.60;59.10;;;;;;5039460;28;20075;-63
2021/08/13 06:40:19;;;;;;;5.97;5.38;;;25.50;59.40;;;;;;5031994;28;20032;-65
2021/08/13 06:42:45;;;;;;;7.28;5.72;;;25.50;59.30;;;;;;5042047;28;20103;-64
2021/08/13 06:45:14;;;;;;;6.75;5.72;;;25.50;59.40;;;;;;5042673;28;20044;-60
2021/08/13 06:47:39;;;;;;;7.65;6.20;;;25.50;59.70;;;;;;5041610;28;20045;-63
2021/08/13 06:50:05;;;;;;;6.68;5.60;;;25.50;59.60;;;;;;5040215;28;20036;-62
2021/08/13 06:52:32;;;;;;;6.55;5.47;;;25.50;59.70;;;;;;5036562;28;20048;-65
2021/08/13 06:54:57;;;;;;;6.55;5.70;;;25.50;60.10;;;;;;5039620;28;20083;-65
2021/08/13 06:57:23;;;;;;;9.07;6.53;;;25.50;60.50;;;;;;5027910;28;20033;-63
2021/08/13 06:59:49;;;;;;;7.15;5.68;;;25.40;60.20;;;;;;5036410;28;20061;-62
2021/08/13 07:02:15;;;;;;;7.50;5.90;;;25.40;60.20;;;;;;5039469;28;20025;-66
2021/08/13 07:04:41;;;;;;;7.13;6.38;;;25.40;61.10;;;;;;5040198;28;20028;-63
2021/08/13 07:07:06;;;;;;;8.43;5.95;;;25.30;61.50;;;;;;5038463;28;20124;-65
2021/08/13 07:09:32;;;;;;;7.03;6.05;;;25.30;61.90;;;;;;5038838;28;20151;-63
2021/08/13 07:11:57;;;;;;;6.18;5.30;;;25.30;61.50;;;;;;5033995;28;20488;-65
2021/08/13 07:14:23;;;;;;;6.03;5.13;;;25.40;61.20;;;;;;5036389;28;20064;-65
2021/08/13 07:16:49;;;;;;;5.75;4.78;;;25.40;60.80;;;;;;5038894;28;20036;-61
2021/08/13 07:19:14;;;;;;;5.20;4.60;;;25.40;60.50;;;;;;5035731;28;20029;-66
2021/08/13 07:21:40;;;;;;;5.22;4.30;;;25.50;60.30;;;;;;5043193;28;20511;-65
2021/08/13 07:24:05;;;;;;;5.70;4.45;;;25.50;60.10;;;;;;5044995;28;20151;-66
2021/08/13 07:26:31;;;;;;;6.25;4.30;;;25.50;60.00;;;;;;5047072;28;20490;-63
2021/08/13 07:28:57;;;;;;;5.18;4.30;;;25.50;59.80;;;;;;5047147;28;20108;-66
2021/08/13 07:31:23;;;;;;;6.35;4.40;;;25.50;59.60;;;;;;5059154;28;20032;-61
2021/08/13 07:33:49;;;;;;;5.00;4.32;;;25.50;59.50;;;;;;5035706;28;20045;-62
2021/08/13 07:36:15;;;;;;;5.03;4.13;;;25.60;59.50;;;;;;5043311;28;20376;-61
2021/08/13 07:38:41;;;;;;;4.50;3.75;;;25.60;59.30;;;;;;5051586;28;20021;-61
2021/08/13 07:41:07;;;;;;;5.20;4.05;;;25.60;59.30;;;;;;5049274;28;20242;-63
2021/08/13 07:43:33;;;;;;;5.70;4.35;;;25.60;59.20;;;;;;5035116;28;20042;-66
2021/08/13 07:45:58;;;;;;;5.07;4.53;;;25.60;59.40;;;;;;5049532;28;20086;-67
2021/08/13 07:48:24;;;;;;;5.22;4.25;;;25.60;59.00;;;;;;5046782;28;20040;-63
2021/08/13 07:50:49;;;;;;;4.70;4.10;;;25.60;59.00;;;;;;5050538;28;20535;-63
2021/08/13 07:53:15;;;;;;;4.60;4.05;;;25.70;58.90;;;;;;5047718;28;20225;-67
2021/08/13 07:55:41;;;;;;;4.88;4.20;;;25.60;58.80;;;;;;5049664;28;20060;-64
2021/08/13 07:58:07;;;;;;;4.93;4.00;;;25.70;58.80;;;;;;5053628;28;20102;-65
2021/08/13 08:00:32;;;;;;;5.38;4.25;;;25.60;58.70;;;;;;5063431;28;20045;-65
2021/08/13 08:02:58;;;;;;;5.47;4.40;;;25.70;58.70;;;;;;5048212;28;20044;-66
2021/08/13 08:05:24;;;;;;;5.93;4.18;;;25.60;58.60;;;;;;5047372;28;20035;-66
2021/08/13 08:07:49;;;;;;;4.78;4.05;;;25.70;58.70;;;;;;5062638;28;20087;-64
2021/08/13 08:10:15;;;;;;;5.10;4.20;;;25.60;58.50;;;;;;5046722;28;20025;-61
2021/08/13 08:12:41;;;;;;;4.82;4.32;;;25.70;58.50;;;;;;5045495;28;20040;-66
2021/08/13 08:15:07;;;;;;;4.78;4.28;;;25.70;58.50;;;;;;5043175;28;20120;-65
2021/08/13 08:17:33;;;;;;;4.78;4.13;;;25.70;58.40;;;;;;5047618;28;20357;-67
2021/08/13 08:19:59;;;;;;;5.55;4.10;;;25.70;58.40;;;;;;5052491;28;20075;-66
2021/08/13 08:22:24;;;;;;;4.88;4.07;;;25.70;58.40;;;;;;5050321;28;20061;-67
2021/08/13 08:24:50;;;;;;;5.05;4.00;;;25.70;58.30;;;;;;5047896;28;20060;-65
2021/08/13 08:27:15;;;;;;;4.78;4.05;;;25.70;58.30;;;;;;5052629;28;20025;-67
2021/08/13 08:29:41;;;;;;;5.10;4.32;;;25.70;58.20;;;;;;5046132;28;20636;-65
2021/08/13 08:32:07;;;;;;;4.50;4.10;;;25.70;58.20;;;;;;5045140;28;20029;-64
2021/08/13 08:34:32;;;;;;;4.90;3.97;;;25.70;58.20;;;;;;5047405;28;20087;-63
2021/08/13 08:36:58;;;;;;;5.00;3.95;;;25.70;58.20;;;;;;5050419;28;20476;-66
2021/08/13 08:39:24;;;;;;;4.72;3.88;;;25.70;58.10;;;;;;5047098;28;20147;-62
2021/08/13 08:41:49;;;;;;;4.60;4.10;;;25.70;58.10;;;;;;5045265;28;20511;-64
2021/08/13 08:44:16;;;;;;;4.85;3.90;;;25.70;58.10;;;;;;5042921;28;20025;-60
2021/08/13 08:46:45;;;;;;;4.45;3.90;;;25.70;58.00;;;;;;5056074;28;20048;-65
2021/08/13 08:49:11;;;;;;;4.68;3.90;;;25.70;58.00;;;;;;5051391;28;20025;-64
2021/08/13 08:51:40;;;;;;;4.40;4.00;;;25.70;58.00;;;;;;5056688;28;20064;-63
2021/08/13 08:54:07;;;;;;;4.50;3.97;;;25.70;58.00;;;;;;5048894;28;20028;-62
2021/08/13 08:56:33;;;;;;;5.38;4.10;;;25.80;58.00;;;;;;5053180;28;20048;-63
2021/08/13 08:58:59;;;;;;;4.32;3.78;;;25.70;57.90;;;;;;5060295;28;20020;-61
2021/08/13 09:01:26;;;;;;;5.50;3.80;;;25.80;57.90;;;;;;5047167;28;20021;-65
2021/08/13 09:03:52;;;;;;;5.00;3.97;;;25.80;57.90;;;;;;5045108;28;20044;-62
2021/08/13 09:06:17;;;;;;;5.65;4.10;;;25.80;57.90;;;;;;5040690;28;20021;-65
2021/08/13 09:08:43;;;;;;;5.15;4.03;;;25.80;57.90;;;;;;5051529;28;20051;-67
2021/08/13 09:11:10;;;;;;;4.15;3.72;;;25.80;57.90;;;;;;5043780;28;20050;-62
2021/08/13 09:13:38;;;;;;;4.47;3.80;;;25.80;57.80;;;;;;5038212;28;20128;-63
2021/08/13 09:16:15;;;;;;;4.38;3.70;;;25.80;57.80;;;;;;5038995;28;20049;-62
2021/08/13 09:18:42;;;;;;;4.22;3.60;;;25.80;57.80;;;;;;5046498;28;20461;-62
2021/08/13 09:21:09;;;;;;;4.72;3.80;;;25.80;57.70;;;;;;5052440;28;20100;-63
2021/08/13 09:23:36;;;;;;;4.45;3.63;;;25.80;57.70;;;;;;5049849;28;20400;-61
2021/08/13 09:26:14;;;;;;;4.45;3.85;;;25.80;57.70;;;;;;5050598;28;20059;-64
2021/08/13 09:28:51;;;;;;;4.53;3.75;;;25.80;57.70;;;;;;5047016;28;20100;-62
2021/08/13 09:31:21;;;;;;;4.13;3.72;;;25.80;57.70;;;;;;5045028;28;20025;-65
2021/08/13 09:33:49;;;;;;;4.80;3.78;;;25.80;57.60;;;;;;5037260;28;20041;-62
2021/08/13 09:36:17;;;;;;;4.38;3.92;;;25.80;57.60;;;;;;5042894;28;20025;-63
2021/08/13 09:38:42;;;;;;;4.07;3.67;;;25.80;57.60;;;;;;5027523;28;20131;-65
2021/08/13 09:41:13;;;;;;;4.30;3.80;;;25.80;57.60;;;;;;5033466;28;20049;-63
2021/08/13 09:43:58;;;;;;;4.35;3.75;;;25.80;57.60;;;;;;5046568;28;20033;-67
2021/08/13 09:46:26;;;;;;;3.97;3.47;;;25.80;57.60;;;;;;5055256;28;20021;-62
2021/08/13 09:48:52;;;;;;;4.78;4.13;;;25.80;57.50;;;;;;5045251;28;20025;-65
2021/08/13 09:51:47;;;;;;;4.65;3.83;;;25.80;57.50;;;;;;5047469;28;20013;-62
2021/08/13 09:54:13;;;;;;;4.25;3.70;;;25.90;57.60;;;;;;5042000;28;20380;-60
2021/08/13 09:56:40;;;;;;;4.30;3.60;;;25.80;57.50;;;;;;5051053;28;20043;-66
2021/08/13 09:59:25;;;;;;;4.13;3.67;;;25.90;57.60;;;;;;5039803;28;20029;-64
2021/08/13 10:01:52;;;;;;;4.30;3.70;;;25.90;57.50;;;;;;5041156;28;20040;-68
2021/08/13 10:04:32;;;;;;;4.72;3.90;;;25.90;57.50;;;;;;5046569;28;20029;-64
2021/08/13 10:06:58;;;;;;;4.22;3.67;;;25.90;57.50;;;;;;5046223;28;20028;-67
2021/08/13 10:09:27;;;;;;;4.20;3.80;;;25.90;57.50;;;;;;5040443;28;20102;-62
2021/08/13 10:12:07;;;;;;;4.20;3.58;;;25.90;57.40;;;;;;5051781;28;20121;-63
2021/08/13 10:14:40;;;;;;;4.28;3.88;;;25.90;57.40;;;;;;5045112;28;20024;-65
2021/08/13 10:17:07;;;;;;;4.30;3.90;;;25.90;57.40;;;;;;5035525;28;20598;-63
2021/08/13 10:19:33;;;;;;;4.43;3.58;;;25.90;57.40;;;;;;5037190;28;20104;-65
2021/08/13 10:21:59;;;;;;;3.70;3.30;;;25.90;57.40;;;;;;5055689;28;20111;-63
2021/08/13 10:24:25;;;;;;;3.80;3.33;;;25.90;57.30;;;;;;5045332;28;20047;-63
2021/08/13 10:26:52;;;;;;;4.22;3.50;;;26.00;57.40;;;;;;5047344;28;20071;-65
2021/08/13 10:29:17;;;;;;;4.28;3.50;;;25.90;57.30;;;;;;5044781;28;20034;-65
2021/08/13 10:31:44;;;;;;;4.10;3.47;;;25.90;57.30;;;;;;5037414;28;20029;-64
2021/08/13 10:34:10;;;;;;;3.92;3.25;;;25.90;57.30;;;;;;5032816;28;20250;-66
2021/08/13 10:36:38;;;;;;;3.92;3.40;;;26.00;57.30;;;;;;5040840;28;20537;-67
2021/08/13 10:39:04;;;;;;;4.35;3.60;;;26.00;57.30;;;;;;5039069;28;20484;-65
2021/08/13 10:41:30;;;;;;;3.90;3.47;;;26.00;57.20;;;;;;5029312;28;20403;-67
2021/08/13 10:43:58;;;;;;;3.83;3.42;;;26.00;57.20;;;;;;5040049;28;20017;-62
2021/08/13 10:46:31;;;;;;;3.85;3.33;;;26.00;57.20;;;;;;5034583;28;20106;-64
2021/08/13 10:48:57;;;;;;;3.70;3.08;;;26.00;57.20;;;;;;5038971;28;20025;-61
2021/08/13 10:51:28;;;;;;;4.20;3.33;;;26.00;57.20;;;;;;5024132;28;20029;-66
2021/08/13 10:54:13;;;;;;;4.38;3.17;;;26.00;57.10;;;;;;5026720;28;20401;-65
2021/08/13 10:56:48;;;;;;;4.30;3.65;;;26.00;57.60;;;;;;5038775;28;20346;-66
2021/08/13 10:59:39;;;;;;;4.15;3.55;;;26.00;57.10;;;;;;5031375;28;20431;-62
2021/08/13 11:02:27;;;;;;;4.28;3.50;;;26.00;57.10;;;;;;5031895;28;20481;-65
2021/08/13 11:04:52;;;;;;;3.75;3.35;;;26.00;57.10;;;;;;5043604;28;20610;-66
2021/08/13 11:07:58;;;;;;;3.42;2.95;;;26.00;57.60;;;;;;5048740;28;20354;-68
2021/08/13 11:10:38;;;;;;;3.95;3.08;;;26.10;57.10;;;;;;5044747;28;20040;-66
2021/08/13 11:13:15;;;;;;;3.75;3.35;;;26.10;57.10;;;;;;5026840;28;20033;-62
2021/08/13 11:15:40;;;;;;;4.13;3.40;;;26.10;57.10;;;;;;5036529;28;20400;-65
2021/08/13 11:18:29;;;;;;;4.68;3.20;;;26.10;57.00;;;;;;5036137;28;20032;-67
2021/08/13 11:20:55;;;;;;;3.60;2.90;;;26.10;57.00;;;;;;5028816;28;20064;-61
2021/08/13 11:23:21;;;;;;;4.68;3.33;;;26.10;56.90;;;;;;5037598;28;20033;-66
2021/08/13 11:25:48;;;;;;;4.53;3.47;;;26.10;57.00;;;;;;5041667;28;20124;-65
2021/08/13 11:28:33;;;;;;;3.35;3.05;;;26.10;57.00;;;;;;5043087;28;20029;-63
2021/08/13 11:31:00;;;;;;;4.20;3.30;;;26.10;57.00;;;;;;5030325;28;20076;-63
2021/08/13 11:33:25;;;;;;;3.92;3.10;;;26.10;57.00;;;;;;5029791;28;20047;-62
2021/08/13 11:35:53;;;;;;;3.97;3.13;;;26.20;57.10;;;;;;5045115;28;20021;-61
2021/08/13 11:38:43;;;;;;;4.03;3.17;;;26.20;57.10;;;;;;5031012;28;20029;-64
2021/08/13 11:41:21;;;;;;;3.90;3.25;;;26.20;57.10;;;;;;5041670;28;20478;-66
2021/08/13 11:43:48;;;;;;;5.32;3.20;;;26.20;57.20;;;;;;5038843;28;20141;-63
2021/08/13 11:46:42;;;;;;;4.95;3.13;;;26.20;57.20;;;;;;5034937;28;20029;-66
2021/08/13 11:49:11;;;;;;;4.63;2.92;;;26.20;57.10;;;;;;5043600;28;20033;-61
2021/08/13 11:51:37;;;;;;;4.15;3.13;;;26.20;57.10;;;;;;5042668;28;20063;-64
2021/08/13 11:54:03;;;;;;;4.45;3.30;;;26.20;57.10;;;;;;5049172;28;20037;-67
2021/08/13 11:56:32;;;;;;;3.97;2.80;;;26.20;57.10;;;;;;5044844;28;20443;-63
2021/08/13 11:58:58;;;;;;;3.63;2.75;;;26.20;57.10;;;;;;5041765;28;20528;-64
2021/08/13 12:01:24;;;;;;;3.80;3.00;;;26.20;57.00;;;;;;5045440;28;20024;-62
2021/08/13 12:03:52;;;;;;;3.53;2.95;;;26.20;57.00;;;;;;5039429;28;20441;-64
2021/08/13 12:06:17;;;;;;;3.72;2.92;;;26.20;57.00;;;;;;5040328;28;20029;-64
2021/08/13 12:08:48;;;;;;;3.83;3.17;;;26.20;56.90;;;;;;5050283;28;20036;-65
2021/08/13 12:11:19;;;;;;;3.33;2.75;;;26.20;57.00;;;;;;5044980;28;20033;-65
2021/08/13 12:13:45;;;;;;;3.40;2.80;;;26.30;57.00;;;;;;5044359;28;20239;-62
2021/08/13 12:16:15;;;;;;;3.47;3.17;;;26.30;57.00;;;;;;5051405;28;20032;-67
2021/08/13 12:18:41;;;;;;;3.90;3.10;;;26.30;57.00;;;;;;5057986;28;20384;-63
2021/08/13 12:21:07;;;;;;;3.45;2.90;;;26.30;57.00;;;;;;5060538;28;20020;-64
2021/08/13 12:23:33;;;;;;;3.17;2.53;;;26.30;56.90;;;;;;5042689;28;20028;-67
2021/08/13 12:26:03;;;;;;;3.22;2.75;;;26.30;56.90;;;;;;5045183;28;20036;-65
2021/08/13 12:28:31;;;;;;;3.25;2.50;;;26.30;56.90;;;;;;5046662;28;20036;-66
2021/08/13 12:31:05;;;;;;;3.42;2.83;;;26.30;56.90;;;;;;5046588;28;20075;-65
2021/08/13 12:33:30;;;;;;;3.47;2.70;;;26.30;56.90;;;;;;5033101;28;20033;-65
2021/08/13 12:35:56;;;;;;;3.60;2.80;;;26.30;56.90;;;;;;5045679;28;20102;-64
2021/08/13 12:38:37;;;;;;;3.67;2.85;;;26.30;56.90;;;;;;5034493;28;20029;-66
2021/08/13 12:41:03;;;;;;;3.28;2.70;;;26.40;57.00;;;;;;5044165;28;20058;-66
2021/08/13 12:43:30;;;;;;;3.22;2.53;;;26.30;56.90;;;;;;5048309;28;20485;-63
2021/08/13 12:45:56;;;;;;;3.30;2.80;;;26.40;56.90;;;;;;5050959;28;20044;-65
2021/08/13 12:48:23;;;;;;;3.15;2.65;;;26.40;56.90;;;;;;5040074;28;20480;-63
2021/08/13 12:50:56;;;;;;;3.20;2.67;;;26.40;57.10;;;;;;5053094;28;20025;-66
2021/08/13 12:53:32;;;;;;;3.58;2.70;;;26.40;57.10;;;;;;5048197;28;20043;-66